Piscifactorias Prime — EA3503 — position and weather

sailwx.info

Track history (hours):
 
Tides and Currents Weather Stations Pressure Air Temp Water Temp Dewpoint Dewpoint Depression Visibility Wind Speed Wind Dir Waves Ship Positions

Piscifactorias Prime

Last reported at 2018-Feb-23 11:39 UTC. Time now 2018-Feb-23 18:47 UTC.
Position N 37°34' W 000°51'.

Length 20 m.

Type: Fishing. MMSI: 225986455.

Date/timePositionNaut miles runAvg speedWind from/ knotsBaromVisibWave heightAir tempDewpointWater temp
2018-Feb-23 11:39N 37°34' W 000°51'2 5.4
2018-Feb-23 11:15N 37°35' W 000°48'1 5.1
2018-Feb-23 11:00N 37°35' W 000°47'5 4.1
2018-Feb-23 09:41N 37°39' W 000°41'1 5.2
2018-Feb-23 09:28N 37°40' W 000°42'2 5.2
2018-Feb-23 09:01N 37°42' W 000°42'3 5.1
2018-Feb-23 08:30N 37°45' W 000°43'3 5.1
2018-Feb-23 08:00N 37°47' W 000°43'2 4.5
2018-Feb-23 07:30N 37°49' W 000°45'0 0.9
2018-Feb-23 07:00N 37°49' W 000°45'0 0.1
2018-Feb-23 06:31N 37°49' W 000°45'0 0.0
2018-Feb-23 06:00N 37°49' W 000°45'0 0.0
2018-Feb-23 05:30N 37°49' W 000°45'0 0.0
2018-Feb-23 04:56N 37°49' W 000°45'0 0.0
2018-Feb-23 04:30N 37°49' W 000°45'0 0.0
2018-Feb-23 04:00N 37°49' W 000°45'0 0.0
2018-Feb-23 03:31N 37°49' W 000°45'0 0.0
2018-Feb-23 03:00N 37°49' W 000°45'0 0.0
2018-Feb-23 02:29N 37°49' W 000°45'0 0.0
2018-Feb-23 01:59N 37°49' W 000°45'0 0.0
2018-Feb-23 01:30N 37°49' W 000°45'0 0.0
2018-Feb-23 01:01N 37°49' W 000°45'0 0.0
2018-Feb-23 00:30N 37°49' W 000°45'0 0.0
2018-Feb-23 00:01N 37°49' W 000°45'0 0.0
2018-Feb-22 23:30N 37°49' W 000°45'0 0.0
2018-Feb-22 23:00N 37°49' W 000°45'0 0.0
2018-Feb-22 22:29N 37°49' W 000°45'0 0.0
2018-Feb-22 21:37N 37°49' W 000°45'0 0.0
2018-Feb-22 21:31N 37°49' W 000°45'0 0.0
2018-Feb-22 21:01N 37°49' W 000°45'0 0.0
2018-Feb-22 20:29N 37°49' W 000°45'0 0.0
2018-Feb-22 20:00N 37°49' W 000°45'0 0.0
2018-Feb-22 19:30N 37°49' W 000°45'0 0.0
2018-Feb-22 18:59N 37°49' W 000°45'0 0.0
2018-Feb-22 18:30N 37°49' W 000°45'0 0.0
2018-Feb-22 17:53N 37°49' W 000°45'0 0.0
2018-Feb-22 17:30N 37°49' W 000°45'0 0.0
2018-Feb-22 17:00N 37°49' W 000°45'0 0.0
2018-Feb-22 16:31N 37°49' W 000°45'0 0.0
2018-Feb-22 16:00N 37°49' W 000°45'0 0.0
2018-Feb-22 15:30N 37°49' W 000°45'0 0.0
2018-Feb-22 15:01N 37°49' W 000°45'0 0.0
2018-Feb-22 14:26N 37°49' W 000°45'0 0.0
2018-Feb-22 14:00N 37°49' W 000°45'0 0.0
2018-Feb-22 13:29N 37°49' W 000°45'0 0.0
2018-Feb-22 12:57N 37°49' W 000°45'0 0.0
2018-Feb-22 12:29N 37°49' W 000°45'0 0.0
2018-Feb-22 12:00N 37°49' W 000°45'0 0.0
2018-Feb-22 11:30N 37°49' W 000°45'0 0.0
2018-Feb-22 10:58N 37°49' W 000°45'0 0.0
2018-Feb-22 10:30N 37°49' W 000°45'0 0.0
2018-Feb-22 10:00N 37°49' W 000°45'0 0.0
2018-Feb-22 09:30N 37°49' W 000°45'0 0.0
2018-Feb-22 08:59N 37°49' W 000°45'0 0.0
2018-Feb-22 08:31N 37°49' W 000°45'0 0.0
2018-Feb-22 07:54N 37°49' W 000°45'0 0.0
2018-Feb-22 07:29N 37°49' W 000°45'0 0.0
2018-Feb-22 06:59N 37°49' W 000°45'0 0.0
2018-Feb-22 06:31N 37°49' W 000°45'0 0.0
2018-Feb-22 06:00N 37°49' W 000°45'0 0.0
2018-Feb-22 05:30N 37°49' W 000°45'0 0.0
2018-Feb-22 05:00N 37°49' W 000°45'0 0.0
2018-Feb-22 04:30N 37°49' W 000°45'0 0.0
2018-Feb-22 04:00N 37°49' W 000°45'0 0.0
2018-Feb-22 03:30N 37°49' W 000°45'0 0.0
2018-Feb-22 03:00N 37°49' W 000°45'0 0.0
2018-Feb-22 02:27N 37°49' W 000°45'0 0.0
2018-Feb-22 02:00N 37°49' W 000°45'0 0.0
2018-Feb-22 01:29N 37°49' W 000°45'0 0.0
2018-Feb-22 01:00N 37°49' W 000°45'0 0.0
2018-Feb-22 00:30N 37°49' W 000°45'0 0.0
2018-Feb-22 00:01N 37°49' W 000°45'0 0.0
2018-Feb-21 23:30N 37°49' W 000°45'0 0.0
2018-Feb-21 23:00N 37°49' W 000°45'0 0.0
2018-Feb-21 22:30N 37°49' W 000°45'0 0.0
2018-Feb-21 21:38N 37°49' W 000°45'0 0.0
2018-Feb-21 21:30N 37°49' W 000°45'0 0.0
2018-Feb-21 21:00N 37°49' W 000°45'0 0.0
2018-Feb-21 20:31N 37°49' W 000°45'0 0.0
2018-Feb-21 20:00N 37°49' W 000°45'0 0.0
2018-Feb-21 19:29N 37°49' W 000°45'0 0.0
2018-Feb-21 19:00N 37°49' W 000°45'0 0.0
2018-Feb-21 18:30N 37°49' W 000°45'0 0.0
2018-Feb-21 18:00N 37°49' W 000°45'0 0.0
2018-Feb-21 17:30N 37°49' W 000°45'0 0.0
2018-Feb-21 17:00N 37°49' W 000°45'0 0.0
2018-Feb-21 16:30N 37°49' W 000°45'0 0.0
2018-Feb-21 15:58N 37°49' W 000°45'0 0.0
2018-Feb-21 15:29N 37°49' W 000°45'0 0.0
2018-Feb-21 14:57N 37°49' W 000°45'0 0.0
2018-Feb-21 14:30N 37°49' W 000°45'0 0.0
2018-Feb-21 14:00N 37°49' W 000°45'0 0.0
2018-Feb-21 13:30N 37°49' W 000°45'0 0.0
2018-Feb-21 13:01N 37°49' W 000°45'0 0.0
2018-Feb-21 12:30N 37°49' W 000°45'0 0.0
2018-Feb-21 12:00N 37°49' W 000°45'0 0.0
2018-Feb-21 11:31N 37°49' W 000°45'1 1.9
2018-Feb-21 11:00N 37°49' W 000°44'3 6.6
2018-Feb-21 10:30N 37°49' W 000°40'0 0.2
2018-Feb-21 09:59N 37°49' W 000°40'0 0.1
2018-Feb-21 09:30N 37°49' W 000°40'0 0.2
2018-Feb-21 09:01N 37°49' W 000°40'0 0.1
2018-Feb-21 08:24N 37°49' W 000°40'0 0.2
2018-Feb-21 08:01N 37°49' W 000°40'3 5.1
2018-Feb-21 07:30N 37°49' W 000°43'2 3.1
2018-Feb-21 07:00N 37°49' W 000°45'0 0.3
2018-Feb-21 06:30N 37°49' W 000°45'0 0.0
2018-Feb-21 06:00N 37°49' W 000°45'0 0.0
2018-Feb-21 05:30N 37°49' W 000°45'0 0.0
2018-Feb-21 05:01N 37°49' W 000°45'0 0.0
2018-Feb-21 04:30N 37°49' W 000°45'0 0.0
2018-Feb-21 04:01N 37°49' W 000°45'0 0.0
2018-Feb-21 03:30N 37°49' W 000°45'0 0.0
2018-Feb-21 03:00N 37°49' W 000°45'0 0.0
2018-Feb-21 02:30N 37°49' W 000°45'0 0.0
2018-Feb-21 02:00N 37°49' W 000°45'0 0.0
2018-Feb-21 01:30N 37°49' W 000°45'0 0.0
2018-Feb-21 01:00N 37°49' W 000°45'0 0.0
2018-Feb-21 00:30N 37°49' W 000°45'0 0.0
2018-Feb-21 00:00N 37°49' W 000°45'0 0.0
2018-Feb-20 23:31N 37°49' W 000°45'0 0.0
2018-Feb-20 23:01N 37°49' W 000°45'0 0.0
2018-Feb-20 22:31N 37°49' W 000°45'0 0.0
2018-Feb-20 21:38N 37°49' W 000°45'0 0.0
2018-Feb-20 21:30N 37°49' W 000°45'0 0.0
2018-Feb-20 21:00N 37°49' W 000°45'0 0.0
2018-Feb-20 20:30N 37°49' W 000°45'0 0.0
2018-Feb-20 20:00N 37°49' W 000°45'0 0.0
2018-Feb-20 19:30N 37°49' W 000°45'0 0.0
2018-Feb-20 19:00N 37°49' W 000°45'0 0.0
2018-Feb-20 18:30N 37°49' W 000°45'0 0.0
2018-Feb-20 18:00N 37°49' W 000°45'0 0.0
2018-Feb-20 17:30N 37°49' W 000°45'0 0.0
2018-Feb-20 17:00N 37°49' W 000°45'0 0.0
2018-Feb-20 16:30N 37°49' W 000°45'0 0.0
2018-Feb-20 16:00N 37°49' W 000°45'0 0.0
2018-Feb-20 15:30N 37°49' W 000°45'0 0.0
2018-Feb-20 15:00N 37°49' W 000°45'0 0.0
2018-Feb-20 14:31N 37°49' W 000°45'0 0.0
2018-Feb-20 14:00N 37°49' W 000°45'0 0.0
2018-Feb-20 13:30N 37°49' W 000°45'0 0.0
2018-Feb-20 13:00N 37°49' W 000°45'0 0.0
2018-Feb-20 12:30N 37°49' W 000°45'0 0.0
2018-Feb-20 12:01N 37°49' W 000°45'0 0.3
2018-Feb-20 11:30N 37°49' W 000°45'3 6.5
2018-Feb-20 11:00N 37°49' W 000°41'1 1.2
2018-Feb-20 10:17N 37°49' W 000°40'0 0.1
2018-Feb-20 10:01N 37°49' W 000°40'0 0.0
2018-Feb-20 09:31N 37°49' W 000°40'0 0.1
2018-Feb-20 08:53N 37°49' W 000°40'0 0.1
2018-Feb-20 08:30N 37°49' W 000°40'0 0.1
2018-Feb-20 07:54N 37°49' W 000°40'3 7.1
2018-Feb-20 07:30N 37°49' W 000°43'1 2.7
2018-Feb-20 07:00N 37°49' W 000°45'0 0.0
2018-Feb-20 06:30N 37°49' W 000°45'0 0.0
2018-Feb-20 06:00N 37°49' W 000°45'0 0.0
2018-Feb-20 05:30N 37°49' W 000°45'0 0.0
2018-Feb-20 05:00N 37°49' W 000°45'0 0.0
2018-Feb-20 04:30N 37°49' W 000°45'0 0.0
2018-Feb-20 04:01N 37°49' W 000°45'0 0.0
2018-Feb-20 03:31N 37°49' W 000°45'1 1.1
2018-Feb-20 03:00N 37°49' W 000°44'4 7.3
2018-Feb-20 02:31N 37°49' W 000°40'0 0.0
2018-Feb-20 02:01N 37°49' W 000°40'0 0.0
2018-Feb-20 01:31N 37°49' W 000°40'0 0.0
2018-Feb-20 01:00N 37°49' W 000°40'0 0.0
2018-Feb-20 00:30N 37°49' W 000°40'2 4.2
2018-Feb-20 00:00N 37°49' W 000°42'2 4.1
2018-Feb-19 23:30N 37°49' W 000°45'0 0.0
2018-Feb-19 23:01N 37°49' W 000°45'0 0.3
2018-Feb-19 22:29N 37°49' W 000°45'0 0.0
2018-Feb-19 21:38N 37°49' W 000°45'0 0.0
2018-Feb-19 21:30N 37°49' W 000°45'0 0.0
2018-Feb-19 21:01N 37°49' W 000°45'0 0.0
2018-Feb-19 20:30N 37°49' W 000°45'0 0.0
2018-Feb-19 20:00N 37°49' W 000°45'0 0.0
2018-Feb-19 19:30N 37°49' W 000°45'0 0.0
2018-Feb-19 19:00N 37°49' W 000°45'0 0.0
2018-Feb-19 18:28N 37°49' W 000°45'0 0.0
2018-Feb-19 17:58N 37°49' W 000°45'0 0.0
2018-Feb-19 17:30N 37°49' W 000°45'0 0.0
2018-Feb-19 16:50N 37°49' W 000°45'0 0.0
2018-Feb-19 16:31N 37°49' W 000°45'0 0.0
2018-Feb-19 16:00N 37°49' W 000°45'0 0.0
2018-Feb-19 15:31N 37°49' W 000°45'0 0.0
2018-Feb-19 15:00N 37°49' W 000°45'0 0.0
2018-Feb-19 14:30N 37°49' W 000°45'0 0.0
2018-Feb-19 14:01N 37°49' W 000°45'0 0.0
2018-Feb-19 13:31N 37°49' W 000°45'0 0.0
2018-Feb-19 13:00N 37°49' W 000°45'0 0.0
2018-Feb-19 12:26N 37°49' W 000°45'0 0.0
2018-Feb-19 12:00N 37°49' W 000°45'2 3.2
2018-Feb-19 11:30N 37°49' W 000°43'3 5.3
2018-Feb-19 11:00N 37°49' W 000°40'0 0.1
2018-Feb-19 10:30N 37°49' W 000°40'2 4.7
2018-Feb-19 09:59N 37°49' W 000°43'2 3.8
2018-Feb-19 09:31N 37°49' W 000°45'3 5.6
2018-Feb-19 09:00N 37°47' W 000°44'5 9.9
2018-Feb-19 08:28N 37°42' W 000°42'5 9.3
2018-Feb-19 07:56N 37°37' W 000°43'410.3
2018-Feb-19 07:30N 37°35' W 000°48'4 0.2
2018-Feb-18 09:25N 37°34' W 000°52'0 0.4
2018-Feb-18 08:57N 37°34' W 000°52'0 0.2
2018-Feb-18 08:27N 37°34' W 000°52'2 2.3
2018-Feb-18 07:41N 37°34' W 000°54'2 8.8
2018-Feb-18 07:29N 37°33' W 000°56'4 0.2
2018-Feb-17 11:39N 37°34' W 000°52'0 0.1
2018-Feb-17 11:29N 37°34' W 000°52'0 0.2
2018-Feb-17 10:52N 37°34' W 000°52'0 0.5
2018-Feb-17 10:31N 37°34' W 000°52'0 0.1
2018-Feb-17 10:00N 37°34' W 000°52'3 0.2
2018-Feb-16 16:41N 37°35' W 000°48'1 3.0
2018-Feb-16 16:30N 37°35' W 000°48'2 3.1
2018-Feb-16 16:00N 37°35' W 000°46'5 3.5
2018-Feb-16 14:37N 37°38' W 000°41'0 4.2
2018-Feb-16 14:30N 37°39' W 000°41'2 4.4
2018-Feb-16 14:00N 37°41' W 000°42'2 4.5
2018-Feb-16 13:31N 37°43' W 000°43'2 4.5
2018-Feb-16 13:00N 37°45' W 000°43'2 4.4
2018-Feb-16 12:30N 37°47' W 000°44'2 4.0
2018-Feb-16 12:00N 37°49' W 000°45'0 0.4
2018-Feb-16 11:25N 37°49' W 000°45'1 3.6
2018-Feb-16 11:01N 37°49' W 000°43'3 5.3
2018-Feb-16 10:29N 37°49' W 000°40'0 0.2
2018-Feb-16 10:00N 37°49' W 000°40'0 0.1
2018-Feb-16 09:30N 37°49' W 000°40'0 0.1
2018-Feb-16 08:53N 37°49' W 000°40'0 0.2
2018-Feb-16 08:29N 37°49' W 000°40'0 0.0
2018-Feb-16 08:00N 37°49' W 000°40'0 0.1
2018-Feb-16 07:30N 37°49' W 000°40'0 0.3
2018-Feb-16 07:00N 37°49' W 000°40'4 8.0
2018-Feb-16 06:31N 37°49' W 000°45'0 0.0
2018-Feb-16 06:00N 37°49' W 000°45'0 0.0
2018-Feb-16 05:30N 37°49' W 000°45'0 0.0
2018-Feb-16 05:00N 37°49' W 000°45'0 0.0
2018-Feb-16 04:30N 37°49' W 000°45'0 0.0
2018-Feb-16 04:00N 37°49' W 000°45'0 0.0
2018-Feb-16 03:30N 37°49' W 000°45'1 1.6
2018-Feb-16 02:59N 37°49' W 000°44'3 7.0
2018-Feb-16 02:30N 37°49' W 000°40'0 0.0
2018-Feb-16 02:00N 37°49' W 000°40'0 0.0
2018-Feb-16 01:29N 37°49' W 000°40'0 0.0
2018-Feb-16 01:00N 37°49' W 000°40'0 0.0
2018-Feb-16 00:30N 37°49' W 000°40'0 0.9
2018-Feb-16 00:01N 37°49' W 000°40'4 7.5
2018-Feb-15 23:30N 37°49' W 000°45'0 0.0
2018-Feb-15 23:00N 37°49' W 000°45'0 0.2
2018-Feb-15 22:27N 37°49' W 000°45'0 0.0
2018-Feb-15 21:37N 37°49' W 000°45'0 0.0
2018-Feb-15 21:27N 37°49' W 000°45'0 0.0
2018-Feb-15 21:00N 37°49' W 000°45'0 0.0
2018-Feb-15 20:30N 37°49' W 000°45'0 0.0
2018-Feb-15 20:00N 37°49' W 000°45'0 0.0
2018-Feb-15 19:30N 37°49' W 000°45'0 0.0
2018-Feb-15 19:00N 37°49' W 000°45'0 0.0
2018-Feb-15 18:30N 37°49' W 000°45'0 0.0
2018-Feb-15 18:00N 37°49' W 000°45'0 0.0
2018-Feb-15 17:30N 37°49' W 000°45'0 0.0
2018-Feb-15 16:58N 37°49' W 000°45'0 0.0
2018-Feb-15 16:30N 37°49' W 000°45'0 0.0
2018-Feb-15 15:58N 37°49' W 000°45'0 0.0
2018-Feb-15 15:31N 37°49' W 000°45'0 0.0
2018-Feb-15 15:00N 37°49' W 000°45'0 0.0
2018-Feb-15 14:28N 37°49' W 000°45'0 0.0
2018-Feb-15 13:59N 37°49' W 000°45'0 0.0
2018-Feb-15 13:30N 37°49' W 000°45'0 0.0
2018-Feb-15 13:00N 37°49' W 000°45'0 0.0
2018-Feb-15 12:30N 37°49' W 000°45'0 0.0
2018-Feb-15 12:00N 37°49' W 000°45'1 1.7
2018-Feb-15 11:31N 37°49' W 000°44'3 6.3
2018-Feb-15 10:58N 37°49' W 000°40'0 0.0
2018-Feb-15 10:28N 37°49' W 000°40'0 0.3
2018-Feb-15 10:00N 37°49' W 000°40'0 0.1
2018-Feb-15 09:31N 37°49' W 000°40'0 0.0
2018-Feb-15 08:59N 37°49' W 000°40'0 0.1
2018-Feb-15 08:29N 37°49' W 000°40'0 0.1
2018-Feb-15 08:00N 37°49' W 000°40'0 0.1
2018-Feb-15 07:31N 37°49' W 000°40'3 6.3
2018-Feb-15 07:01N 37°49' W 000°44'1 1.9
2018-Feb-15 06:30N 37°49' W 000°45'0 0.0
2018-Feb-15 06:00N 37°49' W 000°45'0 0.0
2018-Feb-15 05:30N 37°49' W 000°45'0 0.0
2018-Feb-15 05:00N 37°49' W 000°45'0 0.0
2018-Feb-15 04:31N 37°49' W 000°45'0 0.0
2018-Feb-15 04:00N 37°49' W 000°45'3 5.4
2018-Feb-15 03:31N 37°49' W 000°42'1 2.9
2018-Feb-15 03:00N 37°49' W 000°40'0 0.0
2018-Feb-15 00:47N 37°49' W 000°40'2 8.6
2018-Feb-15 00:30N 37°49' W 000°43'2 3.3
2018-Feb-15 00:00N 37°49' W 000°45'0 0.3
2018-Feb-14 23:31N 37°49' W 000°45'0 0.0
2018-Feb-14 23:00N 37°49' W 000°45'0 0.0
2018-Feb-14 22:31N 37°49' W 000°45'0 0.0
2018-Feb-14 21:37N 37°49' W 000°45'0 0.0
2018-Feb-14 21:29N 37°49' W 000°45'0 0.0
2018-Feb-14 20:58N 37°49' W 000°45'0 0.0
2018-Feb-14 20:31N 37°49' W 000°45'0 0.0
2018-Feb-14 20:00N 37°49' W 000°45'0 0.0
2018-Feb-14 19:30N 37°49' W 000°45'0 0.0
2018-Feb-14 19:00N 37°49' W 000°45'0 0.0
2018-Feb-14 18:29N 37°49' W 000°45'0 0.0
2018-Feb-14 18:00N 37°49' W 000°45'0 0.0
2018-Feb-14 17:29N 37°49' W 000°45'0 0.0
2018-Feb-14 17:00N 37°49' W 000°45'0 0.0
2018-Feb-14 16:29N 37°49' W 000°45'0 0.0
2018-Feb-14 16:00N 37°49' W 000°45'0 0.0
2018-Feb-14 15:31N 37°49' W 000°45'0 0.0
2018-Feb-14 15:01N 37°49' W 000°45'0 0.0
2018-Feb-14 14:28N 37°49' W 000°45'0 0.0
2018-Feb-14 14:00N 37°49' W 000°45'0 0.0
2018-Feb-14 13:30N 37°49' W 000°45'0 0.0
2018-Feb-14 13:00N 37°49' W 000°45'0 0.3
2018-Feb-14 12:30N 37°49' W 000°45'3 6.7
2018-Feb-14 12:00N 37°50' W 000°41'1 1.7
2018-Feb-14 11:27N 37°49' W 000°40'0 0.1
2018-Feb-14 10:54N 37°49' W 000°40'0 0.2
2018-Feb-14 10:29N 37°49' W 000°40'0 0.1
2018-Feb-14 10:00N 37°49' W 000°40'0 0.2
2018-Feb-14 09:30N 37°49' W 000°40'0 0.1
2018-Feb-14 09:00N 37°49' W 000°40'1 2.2
2018-Feb-14 08:31N 37°49' W 000°41'2 4.4
2018-Feb-14 08:00N 37°49' W 000°44'1 1.6
2018-Feb-14 07:30N 37°49' W 000°45'0 0.0
2018-Feb-14 07:00N 37°49' W 000°45'0 0.0
2018-Feb-14 06:30N 37°49' W 000°45'0 0.0
2018-Feb-14 06:00N 37°49' W 000°45'0 0.0
2018-Feb-14 05:31N 37°49' W 000°45'0 0.0
2018-Feb-14 05:01N 37°49' W 000°45'0 0.0
2018-Feb-14 04:30N 37°49' W 000°45'0 0.0
2018-Feb-14 04:00N 37°49' W 000°45'0 0.0
2018-Feb-14 03:30N 37°49' W 000°45'0 0.0
2018-Feb-14 03:01N 37°49' W 000°45'4 7.7
2018-Feb-14 02:29N 37°49' W 000°40'0 0.0
2018-Feb-14 02:01N 37°49' W 000°40'0 0.0
2018-Feb-14 01:31N 37°49' W 000°40'0 0.0
2018-Feb-14 01:00N 37°49' W 000°40'0 0.0
2018-Feb-14 00:26N 37°49' W 000°40'0 0.2
2018-Feb-14 00:01N 37°49' W 000°40'4 8.2
2018-Feb-13 23:31N 37°49' W 000°45'0 0.0
2018-Feb-13 23:00N 37°49' W 000°45'0 0.2
2018-Feb-13 22:27N 37°49' W 000°45'0 0.0
2018-Feb-13 21:37N 37°49' W 000°45'0 0.0
2018-Feb-13 21:30N 37°49' W 000°45'0 0.0
2018-Feb-13 21:00N 37°49' W 000°45'0 0.0
2018-Feb-13 20:27N 37°49' W 000°45'0 0.0
2018-Feb-13 19:58N 37°49' W 000°45'0 0.0
2018-Feb-13 19:30N 37°49' W 000°45'0 0.0
2018-Feb-13 19:00N 37°49' W 000°45'0 0.0
2018-Feb-13 18:23N 37°49' W 000°45'0 0.0
2018-Feb-13 17:59N 37°49' W 000°45'0 0.0
2018-Feb-13 17:28N 37°49' W 000°45'0 0.0
2018-Feb-13 16:56N 37°49' W 000°45'0 0.0
2018-Feb-13 16:30N 37°49' W 000°45'0 0.0
2018-Feb-13 15:59N 37°49' W 000°45'0 0.0
2018-Feb-13 15:28N 37°49' W 000°45'0 0.0
2018-Feb-13 14:56N 37°49' W 000°45'0 0.0
2018-Feb-13 14:30N 37°49' W 000°45'0 0.0
2018-Feb-13 14:00N 37°49' W 000°45'0 0.0
2018-Feb-13 13:30N 37°49' W 000°45'0 0.0
2018-Feb-13 13:00N 37°49' W 000°45'0 0.0
2018-Feb-13 12:31N 37°49' W 000°45'0 0.0
2018-Feb-13 11:59N 37°49' W 000°45'  
Track history (hours):
 
Tides and Currents Weather Stations Pressure Air Temp Water Temp Dewpoint Dewpoint Depression Visibility Wind Speed Wind Dir Waves Ship Positions

Piscifactorias Prime

Last reported at 2018-Feb-23 11:39 UTC. Time now 2018-Feb-23 18:47 UTC.
Position N 37°34' W 000°51'.

Length 20 m.

Type: Fishing. MMSI: 225986455.

Date/timePositionNaut miles runAvg speedWind from/ knotsBaromVisibWave heightAir tempDewpointWater temp
2018-Feb-23 11:39N 37°34' W 000°51'2 5.4
2018-Feb-23 11:15N 37°35' W 000°48'1 5.1
2018-Feb-23 11:00N 37°35' W 000°47'5 4.1
2018-Feb-23 09:41N 37°39' W 000°41'1 5.2
2018-Feb-23 09:28N 37°40' W 000°42'2 5.2
2018-Feb-23 09:01N 37°42' W 000°42'3 5.1
2018-Feb-23 08:30N 37°45' W 000°43'3 5.1
2018-Feb-23 08:00N 37°47' W 000°43'2 4.5
2018-Feb-23 07:30N 37°49' W 000°45'0 0.9
2018-Feb-23 07:00N 37°49' W 000°45'0 0.1
2018-Feb-23 06:31N 37°49' W 000°45'0 0.0
2018-Feb-23 06:00N 37°49' W 000°45'0 0.0
2018-Feb-23 05:30N 37°49' W 000°45'0 0.0
2018-Feb-23 04:56N 37°49' W 000°45'0 0.0
2018-Feb-23 04:30N 37°49' W 000°45'0 0.0
2018-Feb-23 04:00N 37°49' W 000°45'0 0.0
2018-Feb-23 03:31N 37°49' W 000°45'0 0.0
2018-Feb-23 03:00N 37°49' W 000°45'0 0.0
2018-Feb-23 02:29N 37°49' W 000°45'0 0.0
2018-Feb-23 01:59N 37°49' W 000°45'0 0.0
2018-Feb-23 01:30N 37°49' W 000°45'0 0.0
2018-Feb-23 01:01N 37°49' W 000°45'0 0.0
2018-Feb-23 00:30N 37°49' W 000°45'0 0.0
2018-Feb-23 00:01N 37°49' W 000°45'0 0.0
2018-Feb-22 23:30N 37°49' W 000°45'0 0.0
2018-Feb-22 23:00N 37°49' W 000°45'0 0.0
2018-Feb-22 22:29N 37°49' W 000°45'0 0.0
2018-Feb-22 21:37N 37°49' W 000°45'0 0.0
2018-Feb-22 21:31N 37°49' W 000°45'0 0.0
2018-Feb-22 21:01N 37°49' W 000°45'0 0.0
2018-Feb-22 20:29N 37°49' W 000°45'0 0.0
2018-Feb-22 20:00N 37°49' W 000°45'0 0.0
2018-Feb-22 19:30N 37°49' W 000°45'0 0.0
2018-Feb-22 18:59N 37°49' W 000°45'0 0.0
2018-Feb-22 18:30N 37°49' W 000°45'0 0.0
2018-Feb-22 17:53N 37°49' W 000°45'0 0.0
2018-Feb-22 17:30N 37°49' W 000°45'0 0.0
2018-Feb-22 17:00N 37°49' W 000°45'0 0.0
2018-Feb-22 16:31N 37°49' W 000°45'0 0.0
2018-Feb-22 16:00N 37°49' W 000°45'0 0.0
2018-Feb-22 15:30N 37°49' W 000°45'0 0.0
2018-Feb-22 15:01N 37°49' W 000°45'0 0.0
2018-Feb-22 14:26N 37°49' W 000°45'0 0.0
2018-Feb-22 14:00N 37°49' W 000°45'0 0.0
2018-Feb-22 13:29N 37°49' W 000°45'0 0.0
2018-Feb-22 12:57N 37°49' W 000°45'0 0.0
2018-Feb-22 12:29N 37°49' W 000°45'0 0.0
2018-Feb-22 12:00N 37°49' W 000°45'0 0.0
2018-Feb-22 11:30N 37°49' W 000°45'0 0.0
2018-Feb-22 10:58N 37°49' W 000°45'0 0.0
2018-Feb-22 10:30N 37°49' W 000°45'0 0.0
2018-Feb-22 10:00N 37°49' W 000°45'0 0.0
2018-Feb-22 09:30N 37°49' W 000°45'0 0.0
2018-Feb-22 08:59N 37°49' W 000°45'0 0.0
2018-Feb-22 08:31N 37°49' W 000°45'0 0.0
2018-Feb-22 07:54N 37°49' W 000°45'0 0.0
2018-Feb-22 07:29N 37°49' W 000°45'0 0.0
2018-Feb-22 06:59N 37°49' W 000°45'0 0.0
2018-Feb-22 06:31N 37°49' W 000°45'0 0.0
2018-Feb-22 06:00N 37°49' W 000°45'0 0.0
2018-Feb-22 05:30N 37°49' W 000°45'0 0.0
2018-Feb-22 05:00N 37°49' W 000°45'0 0.0
2018-Feb-22 04:30N 37°49' W 000°45'0 0.0
2018-Feb-22 04:00N 37°49' W 000°45'0 0.0
2018-Feb-22 03:30N 37°49' W 000°45'0 0.0
2018-Feb-22 03:00N 37°49' W 000°45'0 0.0
2018-Feb-22 02:27N 37°49' W 000°45'0 0.0
2018-Feb-22 02:00N 37°49' W 000°45'0 0.0
2018-Feb-22 01:29N 37°49' W 000°45'0 0.0
2018-Feb-22 01:00N 37°49' W 000°45'0 0.0
2018-Feb-22 00:30N 37°49' W 000°45'0 0.0
2018-Feb-22 00:01N 37°49' W 000°45'0 0.0
2018-Feb-21 23:30N 37°49' W 000°45'0 0.0
2018-Feb-21 23:00N 37°49' W 000°45'0 0.0
2018-Feb-21 22:30N 37°49' W 000°45'0 0.0
2018-Feb-21 21:38N 37°49' W 000°45'0 0.0
2018-Feb-21 21:30N 37°49' W 000°45'0 0.0
2018-Feb-21 21:00N 37°49' W 000°45'0 0.0
2018-Feb-21 20:31N 37°49' W 000°45'0 0.0
2018-Feb-21 20:00N 37°49' W 000°45'0 0.0
2018-Feb-21 19:29N 37°49' W 000°45'0 0.0
2018-Feb-21 19:00N 37°49' W 000°45'0 0.0
2018-Feb-21 18:30N 37°49' W 000°45'0 0.0
2018-Feb-21 18:00N 37°49' W 000°45'0 0.0
2018-Feb-21 17:30N 37°49' W 000°45'0 0.0
2018-Feb-21 17:00N 37°49' W 000°45'0 0.0
2018-Feb-21 16:30N 37°49' W 000°45'0 0.0
2018-Feb-21 15:58N 37°49' W 000°45'0 0.0
2018-Feb-21 15:29N 37°49' W 000°45'0 0.0
2018-Feb-21 14:57N 37°49' W 000°45'0 0.0
2018-Feb-21 14:30N 37°49' W 000°45'0 0.0
2018-Feb-21 14:00N 37°49' W 000°45'0 0.0
2018-Feb-21 13:30N 37°49' W 000°45'0 0.0
2018-Feb-21 13:01N 37°49' W 000°45'0 0.0
2018-Feb-21 12:30N 37°49' W 000°45'0 0.0
2018-Feb-21 12:00N 37°49' W 000°45'0 0.0
2018-Feb-21 11:31N 37°49' W 000°45'1 1.9
2018-Feb-21 11:00N 37°49' W 000°44'3 6.6
2018-Feb-21 10:30N 37°49' W 000°40'0 0.2
2018-Feb-21 09:59N 37°49' W 000°40'0 0.1
2018-Feb-21 09:30N 37°49' W 000°40'0 0.2
2018-Feb-21 09:01N 37°49' W 000°40'0 0.1
2018-Feb-21 08:24N 37°49' W 000°40'0 0.2
2018-Feb-21 08:01N 37°49' W 000°40'3 5.1
2018-Feb-21 07:30N 37°49' W 000°43'2 3.1
2018-Feb-21 07:00N 37°49' W 000°45'0 0.3
2018-Feb-21 06:30N 37°49' W 000°45'0 0.0
2018-Feb-21 06:00N 37°49' W 000°45'0 0.0
2018-Feb-21 05:30N 37°49' W 000°45'0 0.0
2018-Feb-21 05:01N 37°49' W 000°45'0 0.0
2018-Feb-21 04:30N 37°49' W 000°45'0 0.0
2018-Feb-21 04:01N 37°49' W 000°45'0 0.0
2018-Feb-21 03:30N 37°49' W 000°45'0 0.0
2018-Feb-21 03:00N 37°49' W 000°45'0 0.0
2018-Feb-21 02:30N 37°49' W 000°45'0 0.0
2018-Feb-21 02:00N 37°49' W 000°45'0 0.0
2018-Feb-21 01:30N 37°49' W 000°45'0 0.0
2018-Feb-21 01:00N 37°49' W 000°45'0 0.0
2018-Feb-21 00:30N 37°49' W 000°45'0 0.0
2018-Feb-21 00:00N 37°49' W 000°45'0 0.0
2018-Feb-20 23:31N 37°49' W 000°45'0 0.0
2018-Feb-20 23:01N 37°49' W 000°45'0 0.0
2018-Feb-20 22:31N 37°49' W 000°45'0 0.0
2018-Feb-20 21:38N 37°49' W 000°45'0 0.0
2018-Feb-20 21:30N 37°49' W 000°45'0 0.0
2018-Feb-20 21:00N 37°49' W 000°45'0 0.0
2018-Feb-20 20:30N 37°49' W 000°45'0 0.0
2018-Feb-20 20:00N 37°49' W 000°45'0 0.0
2018-Feb-20 19:30N 37°49' W 000°45'0 0.0
2018-Feb-20 19:00N 37°49' W 000°45'0 0.0
2018-Feb-20 18:30N 37°49' W 000°45'0 0.0
2018-Feb-20 18:00N 37°49' W 000°45'0 0.0
2018-Feb-20 17:30N 37°49' W 000°45'0 0.0
2018-Feb-20 17:00N 37°49' W 000°45'0 0.0
2018-Feb-20 16:30N 37°49' W 000°45'0 0.0
2018-Feb-20 16:00N 37°49' W 000°45'0 0.0
2018-Feb-20 15:30N 37°49' W 000°45'0 0.0
2018-Feb-20 15:00N 37°49' W 000°45'0 0.0
2018-Feb-20 14:31N 37°49' W 000°45'0 0.0
2018-Feb-20 14:00N 37°49' W 000°45'0 0.0
2018-Feb-20 13:30N 37°49' W 000°45'0 0.0
2018-Feb-20 13:00N 37°49' W 000°45'0 0.0
2018-Feb-20 12:30N 37°49' W 000°45'0 0.0
2018-Feb-20 12:01N 37°49' W 000°45'0 0.3
2018-Feb-20 11:30N 37°49' W 000°45'3 6.5
2018-Feb-20 11:00N 37°49' W 000°41'1 1.2
2018-Feb-20 10:17N 37°49' W 000°40'0 0.1
2018-Feb-20 10:01N 37°49' W 000°40'0 0.0
2018-Feb-20 09:31N 37°49' W 000°40'0 0.1
2018-Feb-20 08:53N 37°49' W 000°40'0 0.1
2018-Feb-20 08:30N 37°49' W 000°40'0 0.1
2018-Feb-20 07:54N 37°49' W 000°40'3 7.1
2018-Feb-20 07:30N 37°49' W 000°43'1 2.7
2018-Feb-20 07:00N 37°49' W 000°45'0 0.0
2018-Feb-20 06:30N 37°49' W 000°45'0 0.0
2018-Feb-20 06:00N 37°49' W 000°45'0 0.0
2018-Feb-20 05:30N 37°49' W 000°45'0 0.0
2018-Feb-20 05:00N 37°49' W 000°45'0 0.0
2018-Feb-20 04:30N 37°49' W 000°45'0 0.0
2018-Feb-20 04:01N 37°49' W 000°45'0 0.0
2018-Feb-20 03:31N 37°49' W 000°45'1 1.1
2018-Feb-20 03:00N 37°49' W 000°44'4 7.3
2018-Feb-20 02:31N 37°49' W 000°40'0 0.0
2018-Feb-20 02:01N 37°49' W 000°40'0 0.0
2018-Feb-20 01:31N 37°49' W 000°40'0 0.0
2018-Feb-20 01:00N 37°49' W 000°40'0 0.0
2018-Feb-20 00:30N 37°49' W 000°40'2 4.2
2018-Feb-20 00:00N 37°49' W 000°42'2 4.1
2018-Feb-19 23:30N 37°49' W 000°45'0 0.0
2018-Feb-19 23:01N 37°49' W 000°45'0 0.3
2018-Feb-19 22:29N 37°49' W 000°45'0 0.0
2018-Feb-19 21:38N 37°49' W 000°45'0 0.0
2018-Feb-19 21:30N 37°49' W 000°45'0 0.0
2018-Feb-19 21:01N 37°49' W 000°45'0 0.0
2018-Feb-19 20:30N 37°49' W 000°45'0 0.0
2018-Feb-19 20:00N 37°49' W 000°45'0 0.0
2018-Feb-19 19:30N 37°49' W 000°45'0 0.0
2018-Feb-19 19:00N 37°49' W 000°45'0 0.0
2018-Feb-19 18:28N 37°49' W 000°45'0 0.0
2018-Feb-19 17:58N 37°49' W 000°45'0 0.0
2018-Feb-19 17:30N 37°49' W 000°45'0 0.0
2018-Feb-19 16:50N 37°49' W 000°45'0 0.0
2018-Feb-19 16:31N 37°49' W 000°45'0 0.0
2018-Feb-19 16:00N 37°49' W 000°45'0 0.0
2018-Feb-19 15:31N 37°49' W 000°45'0 0.0
2018-Feb-19 15:00N 37°49' W 000°45'0 0.0
2018-Feb-19 14:30N 37°49' W 000°45'0 0.0
2018-Feb-19 14:01N 37°49' W 000°45'0 0.0
2018-Feb-19 13:31N 37°49' W 000°45'0 0.0
2018-Feb-19 13:00N 37°49' W 000°45'0 0.0
2018-Feb-19 12:26N 37°49' W 000°45'0 0.0
2018-Feb-19 12:00N 37°49' W 000°45'2 3.2
2018-Feb-19 11:30N 37°49' W 000°43'3 5.3
2018-Feb-19 11:00N 37°49' W 000°40'0 0.1
2018-Feb-19 10:30N 37°49' W 000°40'2 4.7
2018-Feb-19 09:59N 37°49' W 000°43'2 3.8
2018-Feb-19 09:31N 37°49' W 000°45'3 5.6
2018-Feb-19 09:00N 37°47' W 000°44'5 9.9
2018-Feb-19 08:28N 37°42' W 000°42'5 9.3
2018-Feb-19 07:56N 37°37' W 000°43'410.3
2018-Feb-19 07:30N 37°35' W 000°48'4 0.2
2018-Feb-18 09:25N 37°34' W 000°52'0 0.4
2018-Feb-18 08:57N 37°34' W 000°52'0 0.2
2018-Feb-18 08:27N 37°34' W 000°52'2 2.3
2018-Feb-18 07:41N 37°34' W 000°54'2 8.8
2018-Feb-18 07:29N 37°33' W 000°56'4 0.2
2018-Feb-17 11:39N 37°34' W 000°52'0 0.1
2018-Feb-17 11:29N 37°34' W 000°52'0 0.2
2018-Feb-17 10:52N 37°34' W 000°52'0 0.5
2018-Feb-17 10:31N 37°34' W 000°52'0 0.1
2018-Feb-17 10:00N 37°34' W 000°52'3 0.2
2018-Feb-16 16:41N 37°35' W 000°48'1 3.0
2018-Feb-16 16:30N 37°35' W 000°48'2 3.1
2018-Feb-16 16:00N 37°35' W 000°46'5 3.5
2018-Feb-16 14:37N 37°38' W 000°41'0 4.2
2018-Feb-16 14:30N 37°39' W 000°41'2 4.4
2018-Feb-16 14:00N 37°41' W 000°42'2 4.5
2018-Feb-16 13:31N 37°43' W 000°43'2 4.5
2018-Feb-16 13:00N 37°45' W 000°43'2 4.4
2018-Feb-16 12:30N 37°47' W 000°44'2 4.0
2018-Feb-16 12:00N 37°49' W 000°45'0 0.4
2018-Feb-16 11:25N 37°49' W 000°45'1 3.6
2018-Feb-16 11:01N 37°49' W 000°43'3 5.3
2018-Feb-16 10:29N 37°49' W 000°40'0 0.2
2018-Feb-16 10:00N 37°49' W 000°40'0 0.1
2018-Feb-16 09:30N 37°49' W 000°40'0 0.1
2018-Feb-16 08:53N 37°49' W 000°40'0 0.2
2018-Feb-16 08:29N 37°49' W 000°40'0 0.0
2018-Feb-16 08:00N 37°49' W 000°40'0 0.1
2018-Feb-16 07:30N 37°49' W 000°40'0 0.3
2018-Feb-16 07:00N 37°49' W 000°40'4 8.0
2018-Feb-16 06:31N 37°49' W 000°45'0 0.0
2018-Feb-16 06:00N 37°49' W 000°45'0 0.0
2018-Feb-16 05:30N 37°49' W 000°45'0 0.0
2018-Feb-16 05:00N 37°49' W 000°45'0 0.0
2018-Feb-16 04:30N 37°49' W 000°45'0 0.0
2018-Feb-16 04:00N 37°49' W 000°45'0 0.0
2018-Feb-16 03:30N 37°49' W 000°45'1 1.6
2018-Feb-16 02:59N 37°49' W 000°44'3 7.0
2018-Feb-16 02:30N 37°49' W 000°40'0 0.0
2018-Feb-16 02:00N 37°49' W 000°40'0 0.0
2018-Feb-16 01:29N 37°49' W 000°40'0 0.0
2018-Feb-16 01:00N 37°49' W 000°40'0 0.0
2018-Feb-16 00:30N 37°49' W 000°40'0 0.9
2018-Feb-16 00:01N 37°49' W 000°40'4 7.5
2018-Feb-15 23:30N 37°49' W 000°45'0 0.0
2018-Feb-15 23:00N 37°49' W 000°45'0 0.2
2018-Feb-15 22:27N 37°49' W 000°45'0 0.0
2018-Feb-15 21:37N 37°49' W 000°45'0 0.0
2018-Feb-15 21:27N 37°49' W 000°45'0 0.0
2018-Feb-15 21:00N 37°49' W 000°45'0 0.0
2018-Feb-15 20:30N 37°49' W 000°45'0 0.0
2018-Feb-15 20:00N 37°49' W 000°45'0 0.0
2018-Feb-15 19:30N 37°49' W 000°45'0 0.0
2018-Feb-15 19:00N 37°49' W 000°45'0 0.0
2018-Feb-15 18:30N 37°49' W 000°45'0 0.0
2018-Feb-15 18:00N 37°49' W 000°45'0 0.0
2018-Feb-15 17:30N 37°49' W 000°45'0 0.0
2018-Feb-15 16:58N 37°49' W 000°45'0 0.0
2018-Feb-15 16:30N 37°49' W 000°45'0 0.0
2018-Feb-15 15:58N 37°49' W 000°45'0 0.0
2018-Feb-15 15:31N 37°49' W 000°45'0 0.0
2018-Feb-15 15:00N 37°49' W 000°45'0 0.0
2018-Feb-15 14:28N 37°49' W 000°45'0 0.0
2018-Feb-15 13:59N 37°49' W 000°45'0 0.0
2018-Feb-15 13:30N 37°49' W 000°45'0 0.0
2018-Feb-15 13:00N 37°49' W 000°45'0 0.0
2018-Feb-15 12:30N 37°49' W 000°45'0 0.0
2018-Feb-15 12:00N 37°49' W 000°45'1 1.7
2018-Feb-15 11:31N 37°49' W 000°44'3 6.3
2018-Feb-15 10:58N 37°49' W 000°40'0 0.0
2018-Feb-15 10:28N 37°49' W 000°40'0 0.3
2018-Feb-15 10:00N 37°49' W 000°40'0 0.1
2018-Feb-15 09:31N 37°49' W 000°40'0 0.0
2018-Feb-15 08:59N 37°49' W 000°40'0 0.1
2018-Feb-15 08:29N 37°49' W 000°40'0 0.1
2018-Feb-15 08:00N 37°49' W 000°40'0 0.1
2018-Feb-15 07:31N 37°49' W 000°40'3 6.3
2018-Feb-15 07:01N 37°49' W 000°44'1 1.9
2018-Feb-15 06:30N 37°49' W 000°45'0 0.0
2018-Feb-15 06:00N 37°49' W 000°45'0 0.0
2018-Feb-15 05:30N 37°49' W 000°45'0 0.0
2018-Feb-15 05:00N 37°49' W 000°45'0 0.0
2018-Feb-15 04:31N 37°49' W 000°45'0 0.0
2018-Feb-15 04:00N 37°49' W 000°45'3 5.4
2018-Feb-15 03:31N 37°49' W 000°42'1 2.9
2018-Feb-15 03:00N 37°49' W 000°40'0 0.0
2018-Feb-15 00:47N 37°49' W 000°40'2 8.6
2018-Feb-15 00:30N 37°49' W 000°43'2 3.3
2018-Feb-15 00:00N 37°49' W 000°45'0 0.3
2018-Feb-14 23:31N 37°49' W 000°45'0 0.0
2018-Feb-14 23:00N 37°49' W 000°45'0 0.0
2018-Feb-14 22:31N 37°49' W 000°45'0 0.0
2018-Feb-14 21:37N 37°49' W 000°45'0 0.0
2018-Feb-14 21:29N 37°49' W 000°45'0 0.0
2018-Feb-14 20:58N 37°49' W 000°45'0 0.0
2018-Feb-14 20:31N 37°49' W 000°45'0 0.0
2018-Feb-14 20:00N 37°49' W 000°45'0 0.0
2018-Feb-14 19:30N 37°49' W 000°45'0 0.0
2018-Feb-14 19:00N 37°49' W 000°45'0 0.0
2018-Feb-14 18:29N 37°49' W 000°45'0 0.0
2018-Feb-14 18:00N 37°49' W 000°45'0 0.0
2018-Feb-14 17:29N 37°49' W 000°45'0 0.0
2018-Feb-14 17:00N 37°49' W 000°45'0 0.0
2018-Feb-14 16:29N 37°49' W 000°45'0 0.0
2018-Feb-14 16:00N 37°49' W 000°45'0 0.0
2018-Feb-14 15:31N 37°49' W 000°45'0 0.0
2018-Feb-14 15:01N 37°49' W 000°45'0 0.0
2018-Feb-14 14:28N 37°49' W 000°45'0 0.0
2018-Feb-14 14:00N 37°49' W 000°45'0 0.0
2018-Feb-14 13:30N 37°49' W 000°45'0 0.0
2018-Feb-14 13:00N 37°49' W 000°45'0 0.3
2018-Feb-14 12:30N 37°49' W 000°45'3 6.7
2018-Feb-14 12:00N 37°50' W 000°41'1 1.7
2018-Feb-14 11:27N 37°49' W 000°40'0 0.1
2018-Feb-14 10:54N 37°49' W 000°40'0 0.2
2018-Feb-14 10:29N 37°49' W 000°40'0 0.1
2018-Feb-14 10:00N 37°49' W 000°40'0 0.2
2018-Feb-14 09:30N 37°49' W 000°40'0 0.1
2018-Feb-14 09:00N 37°49' W 000°40'1 2.2
2018-Feb-14 08:31N 37°49' W 000°41'2 4.4
2018-Feb-14 08:00N 37°49' W 000°44'1 1.6
2018-Feb-14 07:30N 37°49' W 000°45'0 0.0
2018-Feb-14 07:00N 37°49' W 000°45'0 0.0
2018-Feb-14 06:30N 37°49' W 000°45'0 0.0
2018-Feb-14 06:00N 37°49' W 000°45'0 0.0
2018-Feb-14 05:31N 37°49' W 000°45'0 0.0
2018-Feb-14 05:01N 37°49' W 000°45'0 0.0
2018-Feb-14 04:30N 37°49' W 000°45'0 0.0
2018-Feb-14 04:00N 37°49' W 000°45'0 0.0
2018-Feb-14 03:30N 37°49' W 000°45'0 0.0
2018-Feb-14 03:01N 37°49' W 000°45'4 7.7
2018-Feb-14 02:29N 37°49' W 000°40'0 0.0
2018-Feb-14 02:01N 37°49' W 000°40'0 0.0
2018-Feb-14 01:31N 37°49' W 000°40'0 0.0
2018-Feb-14 01:00N 37°49' W 000°40'0 0.0
2018-Feb-14 00:26N 37°49' W 000°40'0 0.2
2018-Feb-14 00:01N 37°49' W 000°40'4 8.2
2018-Feb-13 23:31N 37°49' W 000°45'0 0.0
2018-Feb-13 23:00N 37°49' W 000°45'0 0.2
2018-Feb-13 22:27N 37°49' W 000°45'0 0.0
2018-Feb-13 21:37N 37°49' W 000°45'0 0.0
2018-Feb-13 21:30N 37°49' W 000°45'0 0.0
2018-Feb-13 21:00N 37°49' W 000°45'0 0.0
2018-Feb-13 20:27N 37°49' W 000°45'0 0.0
2018-Feb-13 19:58N 37°49' W 000°45'0 0.0
2018-Feb-13 19:30N 37°49' W 000°45'0 0.0
2018-Feb-13 19:00N 37°49' W 000°45'0 0.0
2018-Feb-13 18:23N 37°49' W 000°45'0 0.0
2018-Feb-13 17:59N 37°49' W 000°45'0 0.0
2018-Feb-13 17:28N 37°49' W 000°45'0 0.0
2018-Feb-13 16:56N 37°49' W 000°45'0 0.0
2018-Feb-13 16:30N 37°49' W 000°45'0 0.0
2018-Feb-13 15:59N 37°49' W 000°45'0 0.0
2018-Feb-13 15:28N 37°49' W 000°45'0 0.0
2018-Feb-13 14:56N 37°49' W 000°45'0 0.0
2018-Feb-13 14:30N 37°49' W 000°45'0 0.0
2018-Feb-13 14:00N 37°49' W 000°45'0 0.0
2018-Feb-13 13:30N 37°49' W 000°45'0 0.0
2018-Feb-13 13:00N 37°49' W 000°45'0 0.0
2018-Feb-13 12:31N 37°49' W 000°45'0 0.0
2018-Feb-13 11:59N 37°49' W 000°45'  

Dump ship's entire track history